createdAt,value
2018-06-21T00:00:06.190Z,3.70
2018-06-21T00:02:35.002Z,3.40
2018-06-21T00:05:03.625Z,3.10
2018-06-21T00:07:32.739Z,3.40
2018-06-21T00:10:01.309Z,3.70
2018-06-21T00:12:31.164Z,3.37
2018-06-21T00:15:00.374Z,3.57
2018-06-21T00:17:28.942Z,3.30
2018-06-21T00:19:57.493Z,3.30
2018-06-21T00:22:26.042Z,3.97
2018-06-21T00:24:54.649Z,3.40
2018-06-21T00:27:23.730Z,2.97
2018-06-21T00:29:52.299Z,3.10
2018-06-21T00:32:20.861Z,3.37
2018-06-21T00:34:49.073Z,3.43
2018-06-21T00:37:17.617Z,3.47
2018-06-21T00:39:46.730Z,3.17
2018-06-21T00:42:15.291Z,3.77
2018-06-21T00:44:43.509Z,4.00
2018-06-21T00:47:12.042Z,4.70
2018-06-21T00:49:40.292Z,4.20
2018-06-21T00:52:08.848Z,4.40
2018-06-21T00:54:37.408Z,4.37
2018-06-21T00:57:07.210Z,4.13
2018-06-21T00:59:35.424Z,4.30
2018-06-21T01:02:08.103Z,4.03
2018-06-21T01:04:36.680Z,4.37
2018-06-21T01:07:08.289Z,3.63
2018-06-21T01:09:36.614Z,3.83
2018-06-21T01:12:05.214Z,4.00
2018-06-21T01:14:33.803Z,3.90
2018-06-21T01:19:52.981Z,3.20
2018-06-21T01:22:21.513Z,4.00
2018-06-21T01:24:49.721Z,4.00
2018-06-21T01:27:18.307Z,3.77
2018-06-21T01:29:46.901Z,3.63
2018-06-21T01:32:15.401Z,3.50
2018-06-21T01:34:43.985Z,3.40
2018-06-21T01:37:12.539Z,4.20
2018-06-21T01:39:41.088Z,4.50
2018-06-21T01:42:09.264Z,3.70
2018-06-21T01:44:37.502Z,3.73
2018-06-21T01:47:06.257Z,4.30
2018-06-21T01:49:34.812Z,4.10
2018-06-21T01:52:03.017Z,4.00
2018-06-21T01:54:31.576Z,3.93
2018-06-21T01:56:59.775Z,4.07
2018-06-21T01:59:28.310Z,4.53
2018-06-21T02:01:56.887Z,4.63
2018-06-21T02:04:25.421Z,4.40
2018-06-21T02:06:54.008Z,4.33
2018-06-21T02:09:22.570Z,4.53
2018-06-21T02:11:50.792Z,4.83
2018-06-21T02:14:19.370Z,4.87
2018-06-21T02:16:47.951Z,5.20
2018-06-21T02:19:17.148Z,5.30
2018-06-21T02:21:45.715Z,5.00
2018-06-21T02:24:14.294Z,4.63
2018-06-21T02:26:42.537Z,4.73
2018-06-21T02:29:11.761Z,5.30
2018-06-21T02:31:39.980Z,4.20
2018-06-21T02:34:09.994Z,4.60
2018-06-21T02:36:39.214Z,4.20
2018-06-21T02:39:09.838Z,4.33
2018-06-21T02:41:38.637Z,4.90
2018-06-21T02:44:07.896Z,4.60
2018-06-21T02:46:36.631Z,5.17
2018-06-21T02:49:05.354Z,4.53
2018-06-21T02:51:33.559Z,4.53
2018-06-21T02:54:02.681Z,4.60
2018-06-21T02:56:31.277Z,4.53
2018-06-21T02:58:59.819Z,5.00
2018-06-21T03:01:28.396Z,5.43
2018-06-21T03:03:56.996Z,5.17
2018-06-21T03:06:26.025Z,3.97
2018-06-21T03:08:55.117Z,5.00
2018-06-21T03:11:23.690Z,5.10
2018-06-21T03:13:52.320Z,4.77
2018-06-21T03:16:20.519Z,4.90
2018-06-21T03:18:49.926Z,5.30
2018-06-21T03:21:19.366Z,5.83
2018-06-21T03:23:47.901Z,5.80
2018-06-21T03:26:16.484Z,5.20
2018-06-21T03:28:45.002Z,5.20
2018-06-21T03:31:13.585Z,5.53
2018-06-21T03:33:42.453Z,5.67
2018-06-21T03:36:11.085Z,5.03
2018-06-21T03:38:39.659Z,5.43
2018-06-21T03:41:08.946Z,5.70
2018-06-21T03:43:37.647Z,5.60
2018-06-21T03:46:06.205Z,5.20
2018-06-21T03:48:35.617Z,5.50
2018-06-21T03:51:04.893Z,5.23
2018-06-21T03:53:33.530Z,4.90
2018-06-21T03:56:02.771Z,4.90
2018-06-21T03:58:31.052Z,5.27
2018-06-21T04:00:59.631Z,5.93
2018-06-21T04:03:27.815Z,5.43
2018-06-21T04:05:56.369Z,5.63
2018-06-21T04:08:24.917Z,5.30
2018-06-21T04:10:53.461Z,5.60
2018-06-21T04:13:22.020Z,5.50
2018-06-21T04:15:50.910Z,4.93
2018-06-21T04:18:26.674Z,5.47
2018-06-21T04:20:54.913Z,5.70
2018-06-21T04:23:23.481Z,5.20
2018-06-21T04:25:52.031Z,5.70
2018-06-21T04:28:21.221Z,5.83
2018-06-21T04:30:49.425Z,5.93
2018-06-21T04:33:17.978Z,5.87
2018-06-21T04:35:46.201Z,5.87
2018-06-21T04:38:15.430Z,6.23
2018-06-21T04:40:43.946Z,6.20
2018-06-21T04:43:12.184Z,6.40
2018-06-21T04:45:41.522Z,6.33
2018-06-21T04:48:09.897Z,6.70
2018-06-21T04:50:38.093Z,6.40
2018-06-21T04:53:06.654Z,6.27
2018-06-21T04:55:35.210Z,6.70
2018-06-21T04:58:03.893Z,6.00
2018-06-21T05:00:32.405Z,6.13
2018-06-21T05:03:06.972Z,5.67
2018-06-21T05:05:36.079Z,5.97
2018-06-21T05:08:04.634Z,5.60
2018-06-21T05:10:33.188Z,5.83
2018-06-21T05:13:08.534Z,4.80
2018-06-21T05:15:41.955Z,4.87
2018-06-21T05:18:10.716Z,5.50
2018-06-21T05:20:39.275Z,5.30
2018-06-21T05:23:07.909Z,4.40
2018-06-21T05:25:39.732Z,4.23
2018-06-21T05:28:09.429Z,4.37
2018-06-21T05:30:37.970Z,4.30
2018-06-21T05:33:06.563Z,4.10
2018-06-21T05:35:35.119Z,4.10
2018-06-21T05:38:03.357Z,4.20
2018-06-21T05:40:35.287Z,4.70
2018-06-21T05:43:04.548Z,4.53
2018-06-21T05:45:34.082Z,4.57
2018-06-21T05:48:03.533Z,3.97
2018-06-21T05:50:34.013Z,4.20
2018-06-21T05:53:02.941Z,4.03
2018-06-21T05:55:33.056Z,4.40
2018-06-21T05:58:03.356Z,4.03
2018-06-21T06:00:32.075Z,3.90
2018-06-21T06:03:02.402Z,3.57
2018-06-21T06:05:31.788Z,3.43
2018-06-21T06:08:03.866Z,4.03
2018-06-21T06:10:32.997Z,4.63
2018-06-21T06:13:02.198Z,4.20
2018-06-21T06:15:30.837Z,4.10
2018-06-21T06:17:59.482Z,3.43
2018-06-21T06:20:27.810Z,4.37
2018-06-21T06:22:56.461Z,4.00
2018-06-21T06:25:25.098Z,4.50
2018-06-21T06:27:54.050Z,4.63
2018-06-21T06:30:22.357Z,4.80
2018-06-21T06:32:51.058Z,5.00
2018-06-21T06:35:19.656Z,4.97
2018-06-21T06:37:48.408Z,4.50
2018-06-21T06:40:17.073Z,4.37
2018-06-21T06:42:46.192Z,4.27
2018-06-21T06:45:14.849Z,4.63
2018-06-21T06:47:45.485Z,4.17
2018-06-21T06:50:14.706Z,4.87
2018-06-21T06:52:43.498Z,4.13
2018-06-21T06:55:12.187Z,4.00
2018-06-21T06:57:40.761Z,4.10
2018-06-21T07:00:09.857Z,4.07
2018-06-21T07:02:39.873Z,3.23
2018-06-21T07:05:10.006Z,3.53
2018-06-21T07:07:39.910Z,3.43
2018-06-21T07:10:08.616Z,4.63
2018-06-21T07:12:37.170Z,3.37
2018-06-21T07:15:19.078Z,3.50
2018-06-21T07:17:50.787Z,3.43
2018-06-21T07:20:20.609Z,3.53
2018-06-21T07:22:49.485Z,3.40
2018-06-21T07:25:18.230Z,2.70
2018-06-21T07:27:47.031Z,2.87
2018-06-21T07:30:16.999Z,2.97
2018-06-21T07:32:45.237Z,3.17
2018-06-21T07:35:15.183Z,2.40
2018-06-21T07:37:43.902Z,2.20
2018-06-21T07:40:12.569Z,2.60
2018-06-21T07:42:40.802Z,2.40
2018-06-21T07:45:15.863Z,2.20
2018-06-21T07:47:45.165Z,2.20
2018-06-21T07:50:13.891Z,2.23
2018-06-21T07:52:42.537Z,2.50
2018-06-21T07:55:15.780Z,2.10
2018-06-21T07:57:45.142Z,2.30
2018-06-21T08:00:13.780Z,2.10
2018-06-21T08:02:42.357Z,1.97
2018-06-21T08:05:12.739Z,2.03
2018-06-21T08:07:41.375Z,2.10
2018-06-21T08:10:09.982Z,2.03
2018-06-21T08:12:38.581Z,1.93
2018-06-21T08:15:07.204Z,2.10
2018-06-21T08:17:35.766Z,2.10
2018-06-21T08:20:04.450Z,2.43
2018-06-21T08:22:32.705Z,2.00
2018-06-21T08:25:01.323Z,1.77
2018-06-21T08:27:29.579Z,1.87
2018-06-21T08:29:58.215Z,1.73
2018-06-21T08:32:26.790Z,1.60
2018-06-21T08:34:55.398Z,1.43
2018-06-21T08:37:24.603Z,1.20
2018-06-21T08:39:54.272Z,1.30
2018-06-21T08:42:22.550Z,1.43
2018-06-21T08:44:50.789Z,1.47
2018-06-21T08:47:19.431Z,1.63
2018-06-21T08:49:48.710Z,1.53
2018-06-21T08:52:17.317Z,1.43
2018-06-21T08:54:46.428Z,1.40
2018-06-21T08:57:15.317Z,1.50
2018-06-21T08:59:44.212Z,1.43
2018-06-21T09:02:12.945Z,1.37
2018-06-21T09:04:41.608Z,1.70
2018-06-21T09:07:10.421Z,1.23
2018-06-21T09:09:39.241Z,1.10
2018-06-21T09:12:07.843Z,1.10
2018-06-21T09:14:36.529Z,1.10
2018-06-21T09:17:05.345Z,1.20
2018-06-21T09:19:33.941Z,1.30
2018-06-21T09:22:02.566Z,1.10
2018-06-21T09:24:31.153Z,1.73
2018-06-21T09:26:59.734Z,1.63
2018-06-21T09:29:28.314Z,1.00
2018-06-21T09:31:56.898Z,1.50
2018-06-21T09:34:25.466Z,1.40
2018-06-21T09:36:54.068Z,1.30
2018-06-21T09:39:27.938Z,1.30
2018-06-21T09:42:01.996Z,1.27
2018-06-21T09:44:33.589Z,1.23
2018-06-21T09:47:07.461Z,1.40
2018-06-21T09:49:35.708Z,1.30
2018-06-21T09:52:05.328Z,1.40
2018-06-21T09:54:33.960Z,1.30
2018-06-21T09:57:02.614Z,1.40
2018-06-21T09:59:31.757Z,1.37
2018-06-21T10:02:00.385Z,1.70
2018-06-21T10:04:29.699Z,1.50
2018-06-21T10:06:58.294Z,1.80
2018-06-21T10:09:27.261Z,1.57
2018-06-21T10:11:55.593Z,1.00
2018-06-21T10:14:24.311Z,1.30
2018-06-21T10:16:53.116Z,1.70
2018-06-21T10:19:21.320Z,1.10
2018-06-21T10:21:50.617Z,1.10
2018-06-21T10:24:19.260Z,1.50
2018-06-21T10:26:47.870Z,1.20
2018-06-21T10:29:16.098Z,0.90
2018-06-21T10:31:44.703Z,1.40
2018-06-21T10:34:13.291Z,1.23
2018-06-21T10:36:41.900Z,0.90
2018-06-21T10:39:12.516Z,1.37
2018-06-21T10:41:41.280Z,0.90
2018-06-21T10:44:09.874Z,1.07
2018-06-21T10:46:39.082Z,1.00
2018-06-21T10:49:07.744Z,1.10
2018-06-21T10:51:37.575Z,1.00
2018-06-21T10:54:06.178Z,1.37
2018-06-21T10:56:35.020Z,1.10
2018-06-21T10:59:03.588Z,1.37
2018-06-21T11:01:32.158Z,1.20
2018-06-21T11:04:00.744Z,1.20
2018-06-21T11:06:29.527Z,1.83
2018-06-21T11:09:09.186Z,1.20
2018-06-21T11:11:37.836Z,1.47
2018-06-21T11:14:06.613Z,1.50
2018-06-21T11:16:35.245Z,1.37
2018-06-21T11:19:03.851Z,1.90
2018-06-21T11:21:32.460Z,1.57
2018-06-21T11:24:02.108Z,1.50
2018-06-21T11:26:30.737Z,1.80
2018-06-21T11:28:59.303Z,1.30
2018-06-21T11:31:27.980Z,1.63
2018-06-21T11:33:56.657Z,1.30
2018-06-21T11:36:26.025Z,1.30
2018-06-21T11:38:54.620Z,1.10
2018-06-21T11:41:24.079Z,0.90
2018-06-21T11:43:52.691Z,1.27
2018-06-21T11:46:27.136Z,0.90
2018-06-21T11:48:59.436Z,1.07
2018-06-21T11:51:28.668Z,1.10
2018-06-21T11:53:57.270Z,1.00
2018-06-21T11:56:26.180Z,1.10
2018-06-21T11:58:54.521Z,0.90
2018-06-21T12:01:23.157Z,1.10
2018-06-21T12:03:51.641Z,0.93
2018-06-21T12:06:19.873Z,1.13
2018-06-21T12:08:49.631Z,1.10
2018-06-21T12:11:18.553Z,1.00
2018-06-21T12:13:47.227Z,1.03
2018-06-21T12:16:17.625Z,1.30
2018-06-21T12:18:47.461Z,1.00
2018-06-21T12:21:16.925Z,1.00
2018-06-21T12:23:45.497Z,1.00
2018-06-21T12:26:14.845Z,1.00
2018-06-21T12:28:43.438Z,0.90
2018-06-21T12:31:18.290Z,1.10
2018-06-21T12:33:47.150Z,1.07
2018-06-21T12:36:15.374Z,0.93
2018-06-21T12:38:46.243Z,1.37
2018-06-21T12:41:16.463Z,1.20
2018-06-21T12:43:45.077Z,1.30
2018-06-21T12:46:14.096Z,1.00
2018-06-21T12:48:44.733Z,1.30
2018-06-21T12:51:14.627Z,1.10
2018-06-21T12:53:43.231Z,1.10
2018-06-21T12:56:11.813Z,1.20
2018-06-21T12:58:40.700Z,1.20
2018-06-21T13:01:10.092Z,1.27
2018-06-21T13:03:38.926Z,1.53
2018-06-21T13:06:07.646Z,2.13
2018-06-21T13:08:43.520Z,1.40
2018-06-21T13:11:23.575Z,1.60
2018-06-21T13:13:57.066Z,1.70
2018-06-21T13:16:25.677Z,1.70
2018-06-21T13:18:54.321Z,2.17
2018-06-21T13:21:22.922Z,1.90
2018-06-21T13:23:51.225Z,2.10
2018-06-21T13:26:20.421Z,2.73
2018-06-21T13:28:49.127Z,2.10
2018-06-21T13:31:18.332Z,2.20
2018-06-21T13:33:48.023Z,1.90
2018-06-21T13:36:16.646Z,1.80
2018-06-21T13:38:45.260Z,1.50
2018-06-21T13:41:15.861Z,2.10
2018-06-21T13:43:44.493Z,1.73
2018-06-21T13:46:13.112Z,1.80
2018-06-21T13:48:42.470Z,1.70
2018-06-21T13:51:11.240Z,1.60
2018-06-21T13:53:39.857Z,1.77
2018-06-21T13:56:08.179Z,1.63
2018-06-21T13:58:36.787Z,1.47
2018-06-21T14:01:05.408Z,1.50
2018-06-21T14:03:34.080Z,1.93
2018-06-21T14:06:02.673Z,1.63
2018-06-21T14:08:31.681Z,1.30
2018-06-21T14:11:00.654Z,1.20
2018-06-21T14:13:28.952Z,0.90
2018-06-21T14:15:57.188Z,1.47
2018-06-21T14:18:29.406Z,0.90
2018-06-21T14:20:58.029Z,1.23
2018-06-21T14:23:26.735Z,1.27
2018-06-21T14:25:55.326Z,1.57
2018-06-21T14:28:23.547Z,1.40
2018-06-21T14:30:52.089Z,1.60
2018-06-21T14:33:20.427Z,1.00
2018-06-21T14:35:48.868Z,0.80
2018-06-21T14:38:17.454Z,1.20
2018-06-21T14:40:46.083Z,0.90
2018-06-21T14:43:14.621Z,1.23
2018-06-21T14:45:43.868Z,1.00
2018-06-21T14:48:12.584Z,1.17
2018-06-21T14:50:41.749Z,1.40
2018-06-21T14:53:10.560Z,1.10
2018-06-21T14:55:39.138Z,1.30
2018-06-21T14:58:07.705Z,1.37
2018-06-21T15:00:36.279Z,1.40
2018-06-21T15:03:05.033Z,2.27
2018-06-21T15:05:34.686Z,1.30
2018-06-21T15:08:03.230Z,1.20
2018-06-21T15:10:31.818Z,1.20
2018-06-21T15:13:00.854Z,1.37
2018-06-21T15:15:29.468Z,1.73
2018-06-21T15:17:57.988Z,1.80
2018-06-21T15:20:26.599Z,1.40
2018-06-21T15:22:55.155Z,1.10
2018-06-21T15:25:23.754Z,1.33
2018-06-21T15:27:52.453Z,1.10
2018-06-21T15:30:21.638Z,1.27
2018-06-21T15:32:50.389Z,1.20
2018-06-21T15:35:19.261Z,1.30
2018-06-21T15:37:47.810Z,1.03
2018-06-21T15:40:16.713Z,1.53
2018-06-21T15:42:45.304Z,1.40
2018-06-21T15:45:14.562Z,1.40
2018-06-21T15:47:43.126Z,1.47
2018-06-21T15:50:12.813Z,1.10
2018-06-21T15:52:41.459Z,1.30
2018-06-21T15:55:10.453Z,1.03
2018-06-21T15:57:39.035Z,1.53
2018-06-21T16:00:07.793Z,1.10
2018-06-21T16:02:36.006Z,0.80
2018-06-21T16:05:05.296Z,1.47
2018-06-21T16:07:33.891Z,1.20
2018-06-21T16:10:02.709Z,1.07
2018-06-21T16:12:31.261Z,1.27
2018-06-21T16:14:59.845Z,1.13
2018-06-21T16:17:28.481Z,1.03
2018-06-21T16:19:57.061Z,1.03
2018-06-21T16:22:25.699Z,1.13
2018-06-21T16:24:54.853Z,1.27
2018-06-21T16:27:23.078Z,1.80
2018-06-21T16:29:51.685Z,1.13
2018-06-21T16:32:20.906Z,1.67
2018-06-21T16:34:49.466Z,1.10
2018-06-21T16:37:18.242Z,1.83
2018-06-21T16:39:47.434Z,1.40
2018-06-21T16:42:16.061Z,1.13
2018-06-21T16:44:44.930Z,0.90
2018-06-21T16:47:13.517Z,1.40
2018-06-21T16:49:42.090Z,1.10
2018-06-21T16:52:10.672Z,1.17
2018-06-21T16:54:39.982Z,1.37
2018-06-21T16:57:08.582Z,1.20
2018-06-21T16:59:37.140Z,1.17
2018-06-21T17:02:05.761Z,1.00
2018-06-21T17:04:34.307Z,1.37
2018-06-21T17:07:02.846Z,1.20
2018-06-21T17:09:31.578Z,1.30
2018-06-21T17:12:00.467Z,1.23
2018-06-21T17:14:29.622Z,1.33
2018-06-21T17:16:58.856Z,1.00
2018-06-21T17:19:27.449Z,1.07
2018-06-21T17:21:56.602Z,0.93
2018-06-21T17:24:25.186Z,1.20
2018-06-21T17:26:53.567Z,1.30
2018-06-21T17:29:22.530Z,1.30
2018-06-21T17:31:51.112Z,1.20
2018-06-21T17:34:19.686Z,1.27
2018-06-21T17:36:48.275Z,0.90
2018-06-21T17:39:17.447Z,2.07
2018-06-21T17:41:46.039Z,1.47
2018-06-21T17:44:15.445Z,1.37
2018-06-21T17:46:44.605Z,1.20
2018-06-21T17:49:13.149Z,1.57
2018-06-21T17:51:41.722Z,1.40
2018-06-21T17:54:10.283Z,1.30
2018-06-21T17:56:39.822Z,1.20
2018-06-21T17:59:08.692Z,1.23
2018-06-21T18:01:38.194Z,1.30
2018-06-21T18:04:06.772Z,1.40
2018-06-21T18:06:35.342Z,1.13
2018-06-21T18:09:04.982Z,1.50
2018-06-21T18:11:33.585Z,1.50
2018-06-21T18:14:02.653Z,1.47
2018-06-21T18:16:31.629Z,1.70
2018-06-21T18:19:00.184Z,1.00
2018-06-21T18:21:28.417Z,1.43
2018-06-21T18:23:56.976Z,1.80
2018-06-21T18:26:25.613Z,1.30
2018-06-21T18:28:54.201Z,1.20
2018-06-21T18:31:22.840Z,1.80
2018-06-21T18:33:51.416Z,1.50
2018-06-21T18:36:20.099Z,1.53
2018-06-21T18:38:48.733Z,1.40
2018-06-21T18:41:17.287Z,2.30
2018-06-21T18:43:45.877Z,1.33
2018-06-21T18:46:14.867Z,1.77
2018-06-21T18:48:43.485Z,2.00
2018-06-21T18:51:12.036Z,1.60
2018-06-21T18:53:40.620Z,1.53
2018-06-21T18:56:10.129Z,1.63
2018-06-21T18:58:38.726Z,1.43
2018-06-21T19:01:07.295Z,1.43
2018-06-21T19:03:35.885Z,1.50
2018-06-21T19:06:07.689Z,1.63
2018-06-21T19:08:41.360Z,1.70
2018-06-21T19:11:15.377Z,1.53
2018-06-21T19:13:43.960Z,1.50
2018-06-21T19:16:12.637Z,1.53
2018-06-21T19:18:41.237Z,1.53
2018-06-21T19:21:10.638Z,1.40
2018-06-21T19:23:39.220Z,1.70
2018-06-21T19:26:07.818Z,2.83
2018-06-21T19:28:36.385Z,1.70
2018-06-21T19:31:05.007Z,1.20
2018-06-21T19:33:33.756Z,1.80
2018-06-21T19:36:02.306Z,1.50
2018-06-21T19:38:30.885Z,1.80
2018-06-21T19:40:59.422Z,2.13
2018-06-21T19:43:27.955Z,1.40
2018-06-21T19:45:57.137Z,1.73
2018-06-21T19:48:25.725Z,1.80
2018-06-21T19:50:54.341Z,1.60
2018-06-21T19:53:22.888Z,1.60
2018-06-21T19:55:51.210Z,1.83
2018-06-21T19:58:20.470Z,1.67
2018-06-21T20:00:50.157Z,1.47
2018-06-21T20:03:18.776Z,1.60
2018-06-21T20:05:47.294Z,1.47
2018-06-21T20:08:15.925Z,1.43
2018-06-21T20:10:47.645Z,1.60
2018-06-21T20:13:16.185Z,1.70
2018-06-21T20:15:54.685Z,1.70
2018-06-21T20:18:23.249Z,1.53
2018-06-21T20:20:51.809Z,1.73
2018-06-21T20:23:20.993Z,1.33
2018-06-21T20:25:49.777Z,1.27
2018-06-21T20:28:18.599Z,1.13
2018-06-21T20:30:47.241Z,1.30
2018-06-21T20:33:15.792Z,1.40
2018-06-21T20:35:44.670Z,1.70
2018-06-21T20:38:13.304Z,1.77
2018-06-21T20:40:42.342Z,1.83
2018-06-21T20:43:10.955Z,1.63
2018-06-21T20:45:39.194Z,1.43
2018-06-21T20:48:08.062Z,1.60
2018-06-21T20:50:36.672Z,1.67
2018-06-21T20:53:05.916Z,1.63
2018-06-21T20:55:34.181Z,1.57
2018-06-21T20:58:02.455Z,1.80
2018-06-21T21:00:30.762Z,1.40
2018-06-21T21:02:59.368Z,1.60
2018-06-21T21:05:29.642Z,1.40
2018-06-21T21:07:58.223Z,1.60
2018-06-21T21:10:27.749Z,1.40
2018-06-21T21:12:56.369Z,1.60
2018-06-21T21:15:24.946Z,1.50
2018-06-21T21:17:53.546Z,1.40
2018-06-21T21:20:22.132Z,1.83
2018-06-21T21:22:50.767Z,1.57
2018-06-21T21:25:19.676Z,1.70
2018-06-21T21:27:48.839Z,1.30
2018-06-21T21:30:17.377Z,1.70
2018-06-21T21:32:45.981Z,1.83
2018-06-21T21:35:14.573Z,1.17
2018-06-21T21:37:43.710Z,1.73
2018-06-21T21:40:11.928Z,1.33
2018-06-21T21:42:40.511Z,1.40
2018-06-21T21:45:09.081Z,1.70
2018-06-21T21:47:37.661Z,1.40
2018-06-21T21:50:06.212Z,1.20
2018-06-21T21:52:34.478Z,1.50
2018-06-21T21:55:03.038Z,1.63
2018-06-21T21:57:31.594Z,1.30
2018-06-21T22:00:00.176Z,1.63
2018-06-21T22:02:29.665Z,1.40
2018-06-21T22:04:58.227Z,1.33
2018-06-21T22:07:26.812Z,1.47
2018-06-21T22:09:55.067Z,1.53
2018-06-21T22:12:23.594Z,1.73
2018-06-21T22:14:52.202Z,1.57
2018-06-21T22:17:20.737Z,1.40
2018-06-21T22:19:49.278Z,1.93
2018-06-21T22:22:17.810Z,1.47
2018-06-21T22:24:46.056Z,1.33
2018-06-21T22:27:14.636Z,2.03
2018-06-21T22:29:43.223Z,1.60
2018-06-21T22:32:12.338Z,1.40
2018-06-21T22:34:42.112Z,1.57
2018-06-21T22:37:10.670Z,1.60
2018-06-21T22:39:39.250Z,1.50
2018-06-21T22:42:08.525Z,1.43
2018-06-21T22:44:37.107Z,1.33
2018-06-21T22:47:05.662Z,1.53
2018-06-21T22:49:34.814Z,1.33
2018-06-21T22:52:03.386Z,1.30
2018-06-21T22:54:31.621Z,1.33
2018-06-21T22:57:00.175Z,1.23
2018-06-21T22:59:28.773Z,1.00
2018-06-21T23:01:57.941Z,1.07
2018-06-21T23:04:27.305Z,1.50
2018-06-21T23:06:55.868Z,1.07
2018-06-21T23:09:24.416Z,1.10
2018-06-21T23:11:52.951Z,1.20
2018-06-21T23:14:21.520Z,1.27
2018-06-21T23:16:52.078Z,1.70
2018-06-21T23:19:30.068Z,1.50
2018-06-21T23:21:59.277Z,1.20
2018-06-21T23:24:28.166Z,1.30
2018-06-21T23:26:56.746Z,1.47
2018-06-21T23:29:25.303Z,1.70
2018-06-21T23:31:54.079Z,2.80
2018-06-21T23:34:22.909Z,2.57
2018-06-21T23:36:51.771Z,1.73
2018-06-21T23:39:20.330Z,1.60
2018-06-21T23:41:48.869Z,1.87
2018-06-21T23:44:17.437Z,1.77
2018-06-21T23:46:46.016Z,1.50
2018-06-21T23:49:15.190Z,1.67
2018-06-21T23:51:43.795Z,1.80
2018-06-21T23:54:13.611Z,1.53
2018-06-21T23:56:43.766Z,1.10
2018-06-21T23:59:12.762Z,1.70
